Terminal Aerodrome Forecast
Issued by NWS

Home | Current Version | Previous Version | Graphics & Text | Print | Product List | Glossary On
Versions: 1 2 3 4 5 6 7 8 9 10 11 12 13 14 15 16 17 18
000
FTUS43 KUNR 051120
TAFGCC
TAF
KGCC 051120Z 0512/0612 14008KT P6SM SCT100
     FM051400 34012KT P6SM SCT050 BKN150
     FM052200 36018G28KT P6SM -SHRA OVC050
     FM060500 33007KT P6SM OVC050=

USA.gov is the U.S. government's official web portal to all federal, state and local government web resources and services.